sensor_id;sensor_type;location;lat;lon;timestamp;P1;durP1;ratioP1;P2;durP2;ratioP2
41709;SDS011;59402;48.396;-4.472;2023-07-13T00:02:03;14.43;;;2.20;;
41709;SDS011;59402;48.396;-4.472;2023-07-13T00:04:29;12.13;;;2.63;;
41709;SDS011;59402;48.396;-4.472;2023-07-13T00:06:54;12.63;;;2.60;;
41709;SDS011;59402;48.396;-4.472;2023-07-13T00:09:20;15.43;;;2.42;;
41709;SDS011;59402;48.396;-4.472;2023-07-13T00:11:50;14.05;;;2.05;;
41709;SDS011;59402;48.396;-4.472;2023-07-13T00:14:16;8.98;;;2.40;;
41709;SDS011;59402;48.396;-4.472;2023-07-13T00:16:41;11.00;;;2.55;;
41709;SDS011;59402;48.396;-4.472;2023-07-13T00:19:10;10.05;;;2.10;;
41709;SDS011;59402;48.396;-4.472;2023-07-13T00:21:36;8.55;;;2.03;;
41709;SDS011;59402;48.396;-4.472;2023-07-13T00:24:02;11.82;;;2.20;;
41709;SDS011;59402;48.396;-4.472;2023-07-13T00:26:28;11.00;;;2.35;;
41709;SDS011;59402;48.396;-4.472;2023-07-13T00:28:53;12.75;;;2.42;;
41709;SDS011;59402;48.396;-4.472;2023-07-13T00:31:19;13.02;;;2.25;;
41709;SDS011;59402;48.396;-4.472;2023-07-13T00:33:45;9.95;;;2.40;;
41709;SDS011;59402;48.396;-4.472;2023-07-13T00:36:11;12.93;;;2.63;;
41709;SDS011;59402;48.396;-4.472;2023-07-13T00:38:37;14.43;;;2.25;;
41709;SDS011;59402;48.396;-4.472;2023-07-13T00:41:02;12.73;;;2.50;;
41709;SDS011;59402;48.396;-4.472;2023-07-13T00:43:29;10.13;;;2.38;;
41709;SDS011;59402;48.396;-4.472;2023-07-13T00:48:27;11.57;;;2.92;;
41709;SDS011;59402;48.396;-4.472;2023-07-13T00:53:19;9.70;;;2.60;;
41709;SDS011;59402;48.396;-4.472;2023-07-13T00:55:45;10.32;;;2.38;;
41709;SDS011;59402;48.396;-4.472;2023-07-13T00:58:10;10.30;;;2.00;;
41709;SDS011;59402;48.396;-4.472;2023-07-13T01:00:36;12.20;;;2.67;;
41709;SDS011;59402;48.396;-4.472;2023-07-13T01:03:03;15.43;;;3.03;;
41709;SDS011;59402;48.396;-4.472;2023-07-13T01:05:29;14.10;;;2.53;;
41709;SDS011;59402;48.396;-4.472;2023-07-13T01:07:57;9.30;;;2.22;;
41709;SDS011;59402;48.396;-4.472;2023-07-13T01:10:23;11.88;;;2.65;;
41709;SDS011;59402;48.396;-4.472;2023-07-13T01:12:48;13.00;;;2.83;;
41709;SDS011;59402;48.396;-4.472;2023-07-13T01:17:58;8.13;;;1.80;;
41709;SDS011;59402;48.396;-4.472;2023-07-13T01:20:24;10.35;;;2.38;;
41709;SDS011;59402;48.396;-4.472;2023-07-13T01:22:50;12.48;;;2.53;;
41709;SDS011;59402;48.396;-4.472;2023-07-13T01:25:16;11.60;;;2.40;;
41709;SDS011;59402;48.396;-4.472;2023-07-13T01:27:42;14.05;;;2.67;;
41709;SDS011;59402;48.396;-4.472;2023-07-13T01:30:08;9.27;;;1.80;;
41709;SDS011;59402;48.396;-4.472;2023-07-13T01:32:34;9.88;;;1.83;;
41709;SDS011;59402;48.396;-4.472;2023-07-13T01:34:59;10.50;;;2.15;;
41709;SDS011;59402;48.396;-4.472;2023-07-13T01:37:26;11.40;;;2.30;;
41709;SDS011;59402;48.396;-4.472;2023-07-13T01:39:52;8.23;;;2.08;;
41709;SDS011;59402;48.396;-4.472;2023-07-13T01:42:17;9.57;;;1.90;;
41709;SDS011;59402;48.396;-4.472;2023-07-13T01:44:42;10.07;;;1.75;;
41709;SDS011;59402;48.396;-4.472;2023-07-13T01:47:08;8.32;;;2.40;;
41709;SDS011;59402;48.396;-4.472;2023-07-13T01:49:33;9.07;;;2.13;;
41709;SDS011;59402;48.396;-4.472;2023-07-13T01:51:59;11.20;;;1.85;;
41709;SDS011;59402;48.396;-4.472;2023-07-13T01:54:24;11.55;;;2.15;;
41709;SDS011;59402;48.396;-4.472;2023-07-13T01:56:49;6.97;;;1.90;;
41709;SDS011;59402;48.396;-4.472;2023-07-13T01:59:15;14.57;;;2.53;;
41709;SDS011;59402;48.396;-4.472;2023-07-13T02:01:40;12.57;;;2.13;;
41709;SDS011;59402;48.396;-4.472;2023-07-13T02:04:06;7.82;;;1.83;;
41709;SDS011;59402;48.396;-4.472;2023-07-13T02:06:32;6.85;;;1.85;;
41709;SDS011;59402;48.396;-4.472;2023-07-13T02:08:58;11.27;;;2.17;;
41709;SDS011;59402;48.396;-4.472;2023-07-13T02:11:23;7.47;;;1.60;;
41709;SDS011;59402;48.396;-4.472;2023-07-13T02:13:50;9.98;;;2.35;;
41709;SDS011;59402;48.396;-4.472;2023-07-13T02:16:15;12.35;;;2.40;;
41709;SDS011;59402;48.396;-4.472;2023-07-13T02:18:40;7.82;;;1.95;;
41709;SDS011;59402;48.396;-4.472;2023-07-13T02:21:06;9.77;;;2.20;;
41709;SDS011;59402;48.396;-4.472;2023-07-13T02:23:31;11.07;;;2.53;;
41709;SDS011;59402;48.396;-4.472;2023-07-13T02:25:57;9.63;;;2.65;;
41709;SDS011;59402;48.396;-4.472;2023-07-13T02:28:22;12.80;;;2.58;;
41709;SDS011;59402;48.396;-4.472;2023-07-13T02:30:48;10.52;;;2.65;;
41709;SDS011;59402;48.396;-4.472;2023-07-13T02:33:14;13.52;;;2.63;;
41709;SDS011;59402;48.396;-4.472;2023-07-13T02:35:39;10.63;;;2.85;;
41709;SDS011;59402;48.396;-4.472;2023-07-13T02:38:05;9.75;;;2.70;;
41709;SDS011;59402;48.396;-4.472;2023-07-13T02:40:31;14.50;;;3.20;;
41709;SDS011;59402;48.396;-4.472;2023-07-13T02:42:58;13.98;;;2.75;;
41709;SDS011;59402;48.396;-4.472;2023-07-13T02:45:23;12.85;;;2.75;;
41709;SDS011;59402;48.396;-4.472;2023-07-13T02:47:49;12.48;;;3.17;;
41709;SDS011;59402;48.396;-4.472;2023-07-13T02:50:14;13.98;;;2.92;;
41709;SDS011;59402;48.396;-4.472;2023-07-13T02:52:39;12.13;;;2.60;;
41709;SDS011;59402;48.396;-4.472;2023-07-13T02:55:05;9.70;;;3.53;;
41709;SDS011;59402;48.396;-4.472;2023-07-13T02:57:30;11.57;;;2.55;;
41709;SDS011;59402;48.396;-4.472;2023-07-13T02:59:58;13.32;;;3.70;;
41709;SDS011;59402;48.396;-4.472;2023-07-13T03:02:23;12.20;;;3.15;;
41709;SDS011;59402;48.396;-4.472;2023-07-13T03:04:49;9.00;;;2.42;;
41709;SDS011;59402;48.396;-4.472;2023-07-13T03:07:14;14.45;;;3.08;;
41709;SDS011;59402;48.396;-4.472;2023-07-13T03:09:41;12.00;;;3.05;;
41709;SDS011;59402;48.396;-4.472;2023-07-13T03:12:07;12.45;;;2.75;;
41709;SDS011;59402;48.396;-4.472;2023-07-13T03:14:33;14.90;;;2.75;;
41709;SDS011;59402;48.396;-4.472;2023-07-13T03:17:00;16.47;;;2.93;;
41709;SDS011;59402;48.396;-4.472;2023-07-13T03:19:28;15.40;;;3.28;;
41709;SDS011;59402;48.396;-4.472;2023-07-13T03:21:54;18.33;;;3.22;;
41709;SDS011;59402;48.396;-4.472;2023-07-13T03:24:20;13.15;;;3.03;;
41709;SDS011;59402;48.396;-4.472;2023-07-13T03:26:46;11.13;;;3.10;;
41709;SDS011;59402;48.396;-4.472;2023-07-13T03:29:11;14.88;;;3.63;;
41709;SDS011;59402;48.396;-4.472;2023-07-13T03:31:37;14.68;;;3.25;;
41709;SDS011;59402;48.396;-4.472;2023-07-13T03:34:03;14.77;;;3.92;;
41709;SDS011;59402;48.396;-4.472;2023-07-13T03:36:29;19.48;;;3.63;;
41709;SDS011;59402;48.396;-4.472;2023-07-13T03:38:59;15.88;;;3.17;;
41709;SDS011;59402;48.396;-4.472;2023-07-13T03:41:33;15.25;;;3.25;;
41709;SDS011;59402;48.396;-4.472;2023-07-13T03:43:58;12.32;;;3.00;;
41709;SDS011;59402;48.396;-4.472;2023-07-13T03:46:25;15.02;;;3.15;;
41709;SDS011;59402;48.396;-4.472;2023-07-13T03:48:51;18.45;;;3.40;;
41709;SDS011;59402;48.396;-4.472;2023-07-13T03:51:17;15.13;;;3.75;;
41709;SDS011;59402;48.396;-4.472;2023-07-13T03:53:43;10.27;;;3.03;;
41709;SDS011;59402;48.396;-4.472;2023-07-13T03:56:10;15.80;;;3.03;;
41709;SDS011;59402;48.396;-4.472;2023-07-13T03:58:39;14.48;;;2.85;;
41709;SDS011;59402;48.396;-4.472;2023-07-13T04:01:12;16.55;;;3.88;;
41709;SDS011;59402;48.396;-4.472;2023-07-13T04:03:38;14.68;;;4.10;;
41709;SDS011;59402;48.396;-4.472;2023-07-13T04:06:04;14.95;;;3.33;;
41709;SDS011;59402;48.396;-4.472;2023-07-13T04:08:31;18.05;;;3.30;;
41709;SDS011;59402;48.396;-4.472;2023-07-13T04:10:58;15.95;;;3.85;;
41709;SDS011;59402;48.396;-4.472;2023-07-13T04:13:24;12.30;;;3.42;;
41709;SDS011;59402;48.396;-4.472;2023-07-13T04:15:50;14.65;;;3.35;;
41709;SDS011;59402;48.396;-4.472;2023-07-13T04:18:15;14.32;;;3.00;;
41709;SDS011;59402;48.396;-4.472;2023-07-13T04:20:41;12.70;;;3.42;;
41709;SDS011;59402;48.396;-4.472;2023-07-13T04:23:06;16.58;;;3.20;;
41709;SDS011;59402;48.396;-4.472;2023-07-13T04:25:31;14.63;;;3.25;;
41709;SDS011;59402;48.396;-4.472;2023-07-13T04:27:56;16.02;;;3.67;;
41709;SDS011;59402;48.396;-4.472;2023-07-13T04:30:22;11.77;;;3.55;;
41709;SDS011;59402;48.396;-4.472;2023-07-13T04:32:48;14.68;;;3.85;;
41709;SDS011;59402;48.396;-4.472;2023-07-13T04:35:13;15.25;;;3.20;;
41709;SDS011;59402;48.396;-4.472;2023-07-13T04:37:39;17.80;;;3.83;;
41709;SDS011;59402;48.396;-4.472;2023-07-13T04:40:05;14.45;;;3.38;;
41709;SDS011;59402;48.396;-4.472;2023-07-13T04:42:31;13.65;;;2.63;;
41709;SDS011;59402;48.396;-4.472;2023-07-13T04:44:56;15.57;;;3.25;;
41709;SDS011;59402;48.396;-4.472;2023-07-13T04:47:22;10.75;;;3.28;;
41709;SDS011;59402;48.396;-4.472;2023-07-13T04:49:47;16.05;;;3.45;;
41709;SDS011;59402;48.396;-4.472;2023-07-13T04:52:13;11.52;;;2.97;;
41709;SDS011;59402;48.396;-4.472;2023-07-13T04:54:38;13.68;;;3.35;;
41709;SDS011;59402;48.396;-4.472;2023-07-13T04:57:04;11.80;;;2.78;;
41709;SDS011;59402;48.396;-4.472;2023-07-13T04:59:31;11.77;;;3.10;;
41709;SDS011;59402;48.396;-4.472;2023-07-13T05:01:57;13.57;;;2.78;;
41709;SDS011;59402;48.396;-4.472;2023-07-13T05:04:22;15.95;;;3.40;;
41709;SDS011;59402;48.396;-4.472;2023-07-13T05:06:47;12.90;;;3.08;;
41709;SDS011;59402;48.396;-4.472;2023-07-13T05:09:13;14.73;;;3.38;;
41709;SDS011;59402;48.396;-4.472;2023-07-13T05:11:38;14.95;;;3.03;;
41709;SDS011;59402;48.396;-4.472;2023-07-13T05:14:03;12.95;;;3.38;;
41709;SDS011;59402;48.396;-4.472;2023-07-13T05:16:29;13.02;;;4.10;;
41709;SDS011;59402;48.396;-4.472;2023-07-13T05:18:54;11.82;;;3.55;;
41709;SDS011;59402;48.396;-4.472;2023-07-13T05:21:19;14.32;;;3.38;;
41709;SDS011;59402;48.396;-4.472;2023-07-13T05:23:45;12.57;;;3.28;;
41709;SDS011;59402;48.396;-4.472;2023-07-13T05:26:10;13.40;;;3.05;;
41709;SDS011;59402;48.396;-4.472;2023-07-13T05:28:36;14.02;;;3.40;;
41709;SDS011;59402;48.396;-4.472;2023-07-13T05:31:01;16.73;;;2.97;;
41709;SDS011;59402;48.396;-4.472;2023-07-13T05:33:27;9.98;;;2.38;;
41709;SDS011;59402;48.396;-4.472;2023-07-13T05:35:52;11.68;;;3.20;;
41709;SDS011;59402;48.396;-4.472;2023-07-13T05:38:18;14.75;;;3.35;;
41709;SDS011;59402;48.396;-4.472;2023-07-13T05:40:43;13.57;;;2.97;;
41709;SDS011;59402;48.396;-4.472;2023-07-13T05:43:09;12.85;;;2.63;;
41709;SDS011;59402;48.396;-4.472;2023-07-13T05:45:34;13.98;;;2.90;;
41709;SDS011;59402;48.396;-4.472;2023-07-13T05:47:59;11.45;;;2.75;;
41709;SDS011;59402;48.396;-4.472;2023-07-13T05:50:25;14.05;;;3.92;;
41709;SDS011;59402;48.396;-4.472;2023-07-13T05:52:51;16.63;;;2.95;;
41709;SDS011;59402;48.396;-4.472;2023-07-13T05:55:17;12.68;;;3.22;;
41709;SDS011;59402;48.396;-4.472;2023-07-13T05:57:42;13.95;;;3.03;;
41709;SDS011;59402;48.396;-4.472;2023-07-13T06:00:08;12.05;;;2.90;;
41709;SDS011;59402;48.396;-4.472;2023-07-13T06:02:37;13.88;;;2.90;;
41709;SDS011;59402;48.396;-4.472;2023-07-13T06:05:03;13.02;;;3.10;;
41709;SDS011;59402;48.396;-4.472;2023-07-13T06:07:28;11.65;;;3.15;;
41709;SDS011;59402;48.396;-4.472;2023-07-13T06:09:54;12.15;;;2.70;;
41709;SDS011;59402;48.396;-4.472;2023-07-13T06:12:19;13.20;;;3.13;;
41709;SDS011;59402;48.396;-4.472;2023-07-13T06:14:44;13.15;;;2.92;;
41709;SDS011;59402;48.396;-4.472;2023-07-13T06:17:09;15.55;;;2.90;;
41709;SDS011;59402;48.396;-4.472;2023-07-13T06:19:35;11.93;;;2.78;;
41709;SDS011;59402;48.396;-4.472;2023-07-13T06:22:00;15.45;;;3.53;;
41709;SDS011;59402;48.396;-4.472;2023-07-13T06:24:25;13.82;;;2.65;;
41709;SDS011;59402;48.396;-4.472;2023-07-13T06:26:51;9.43;;;2.75;;
41709;SDS011;59402;48.396;-4.472;2023-07-13T06:29:16;16.20;;;3.25;;
41709;SDS011;59402;48.396;-4.472;2023-07-13T06:31:42;17.08;;;3.00;;
41709;SDS011;59402;48.396;-4.472;2023-07-13T06:34:07;16.75;;;2.83;;
41709;SDS011;59402;48.396;-4.472;2023-07-13T06:36:32;11.93;;;3.08;;
41709;SDS011;59402;48.396;-4.472;2023-07-13T06:38:58;10.02;;;2.47;;
41709;SDS011;59402;48.396;-4.472;2023-07-13T06:41:23;12.63;;;2.70;;
41709;SDS011;59402;48.396;-4.472;2023-07-13T06:43:51;10.18;;;2.97;;
41709;SDS011;59402;48.396;-4.472;2023-07-13T06:46:16;10.40;;;2.70;;
41709;SDS011;59402;48.396;-4.472;2023-07-13T06:48:42;8.73;;;2.88;;
41709;SDS011;59402;48.396;-4.472;2023-07-13T06:51:07;7.88;;;2.65;;
41709;SDS011;59402;48.396;-4.472;2023-07-13T06:53:33;10.27;;;3.20;;
41709;SDS011;59402;48.396;-4.472;2023-07-13T06:55:58;10.48;;;2.65;;
41709;SDS011;59402;48.396;-4.472;2023-07-13T06:58:23;9.93;;;2.95;;
41709;SDS011;59402;48.396;-4.472;2023-07-13T07:00:50;9.25;;;2.88;;
41709;SDS011;59402;48.396;-4.472;2023-07-13T07:03:16;9.18;;;2.90;;
41709;SDS011;59402;48.396;-4.472;2023-07-13T07:05:41;9.68;;;2.88;;
41709;SDS011;59402;48.396;-4.472;2023-07-13T07:08:06;10.68;;;2.88;;
41709;SDS011;59402;48.396;-4.472;2023-07-13T07:10:32;8.63;;;2.90;;
41709;SDS011;59402;48.396;-4.472;2023-07-13T07:12:58;11.35;;;3.10;;
41709;SDS011;59402;48.396;-4.472;2023-07-13T07:15:24;13.35;;;3.35;;
41709;SDS011;59402;48.396;-4.472;2023-07-13T07:17:49;10.43;;;2.92;;
41709;SDS011;59402;48.396;-4.472;2023-07-13T07:20:14;11.00;;;2.90;;
41709;SDS011;59402;48.396;-4.472;2023-07-13T07:22:40;9.80;;;2.78;;
41709;SDS011;59402;48.396;-4.472;2023-07-13T07:25:05;11.43;;;2.80;;
41709;SDS011;59402;48.396;-4.472;2023-07-13T07:27:32;15.30;;;2.97;;
41709;SDS011;59402;48.396;-4.472;2023-07-13T07:29:57;13.82;;;3.30;;
41709;SDS011;59402;48.396;-4.472;2023-07-13T07:32:23;8.00;;;2.80;;
41709;SDS011;59402;48.396;-4.472;2023-07-13T07:34:48;11.98;;;3.55;;
41709;SDS011;59402;48.396;-4.472;2023-07-13T07:37:14;11.90;;;3.10;;
41709;SDS011;59402;48.396;-4.472;2023-07-13T07:39:39;9.25;;;2.97;;
41709;SDS011;59402;48.396;-4.472;2023-07-13T07:42:05;11.45;;;3.25;;
41709;SDS011;59402;48.396;-4.472;2023-07-13T07:44:31;11.02;;;2.75;;
41709;SDS011;59402;48.396;-4.472;2023-07-13T07:46:56;14.05;;;3.40;;
41709;SDS011;59402;48.396;-4.472;2023-07-13T07:49:22;14.85;;;3.20;;
41709;SDS011;59402;48.396;-4.472;2023-07-13T07:51:47;11.32;;;3.00;;
41709;SDS011;59402;48.396;-4.472;2023-07-13T07:54:12;12.80;;;3.15;;
41709;SDS011;59402;48.396;-4.472;2023-07-13T07:56:38;16.63;;;3.40;;
41709;SDS011;59402;48.396;-4.472;2023-07-13T07:59:03;11.63;;;3.00;;
41709;SDS011;59402;48.396;-4.472;2023-07-13T08:01:29;12.90;;;3.20;;
41709;SDS011;59402;48.396;-4.472;2023-07-13T08:03:54;16.25;;;3.10;;
41709;SDS011;59402;48.396;-4.472;2023-07-13T08:06:19;12.23;;;2.75;;
41709;SDS011;59402;48.396;-4.472;2023-07-13T08:08:45;12.07;;;3.42;;
41709;SDS011;59402;48.396;-4.472;2023-07-13T08:11:10;9.18;;;3.10;;
41709;SDS011;59402;48.396;-4.472;2023-07-13T08:13:36;10.63;;;2.88;;
41709;SDS011;59402;48.396;-4.472;2023-07-13T08:16:03;9.95;;;3.00;;
41709;SDS011;59402;48.396;-4.472;2023-07-13T08:18:29;6.50;;;2.63;;
41709;SDS011;59402;48.396;-4.472;2023-07-13T08:20:55;8.60;;;2.95;;
41709;SDS011;59402;48.396;-4.472;2023-07-13T08:23:24;12.23;;;3.35;;
41709;SDS011;59402;48.396;-4.472;2023-07-13T08:25:52;7.35;;;2.75;;
41709;SDS011;59402;48.396;-4.472;2023-07-13T08:28:19;10.55;;;2.65;;
41709;SDS011;59402;48.396;-4.472;2023-07-13T08:30:44;9.25;;;2.72;;
41709;SDS011;59402;48.396;-4.472;2023-07-13T08:33:09;8.23;;;2.58;;
41709;SDS011;59402;48.396;-4.472;2023-07-13T08:35:35;8.13;;;2.13;;
41709;SDS011;59402;48.396;-4.472;2023-07-13T08:38:00;7.65;;;2.75;;
41709;SDS011;59402;48.396;-4.472;2023-07-13T08:40:25;10.50;;;2.35;;
41709;SDS011;59402;48.396;-4.472;2023-07-13T08:42:58;7.95;;;2.95;;
41709;SDS011;59402;48.396;-4.472;2023-07-13T08:45:28;13.75;;;3.13;;
41709;SDS011;59402;48.396;-4.472;2023-07-13T08:47:57;18.35;;;3.60;;
41709;SDS011;59402;48.396;-4.472;2023-07-13T08:50:25;10.63;;;3.08;;
41709;SDS011;59402;48.396;-4.472;2023-07-13T08:52:52;10.80;;;3.22;;
41709;SDS011;59402;48.396;-4.472;2023-07-13T08:55:19;12.63;;;2.60;;
41709;SDS011;59402;48.396;-4.472;2023-07-13T08:57:46;10.65;;;2.90;;
41709;SDS011;59402;48.396;-4.472;2023-07-13T09:00:13;8.60;;;3.00;;
41709;SDS011;59402;48.396;-4.472;2023-07-13T09:02:48;9.82;;;2.58;;
41709;SDS011;59402;48.396;-4.472;2023-07-13T09:05:34;10.43;;;2.40;;
41709;SDS011;59402;48.396;-4.472;2023-07-13T09:10:32;14.55;;;2.72;;
41709;SDS011;59402;48.396;-4.472;2023-07-13T09:17:54;9.52;;;3.45;;
41709;SDS011;59402;48.396;-4.472;2023-07-13T09:20:26;9.82;;;2.50;;
41709;SDS011;59402;48.396;-4.472;2023-07-13T09:22:52;8.25;;;2.75;;
41709;SDS011;59402;48.396;-4.472;2023-07-13T09:25:28;9.68;;;2.30;;
41709;SDS011;59402;48.396;-4.472;2023-07-13T09:27:55;8.02;;;2.47;;
41709;SDS011;59402;48.396;-4.472;2023-07-13T09:30:37;8.55;;;2.38;;
41709;SDS011;59402;48.396;-4.472;2023-07-13T09:33:03;9.07;;;2.22;;
41709;SDS011;59402;48.396;-4.472;2023-07-13T09:35:29;14.90;;;2.75;;
41709;SDS011;59402;48.396;-4.472;2023-07-13T09:37:59;7.47;;;2.38;;
41709;SDS011;59402;48.396;-4.472;2023-07-13T09:40:28;7.13;;;2.30;;
41709;SDS011;59402;48.396;-4.472;2023-07-13T09:42:55;9.93;;;3.03;;
41709;SDS011;59402;48.396;-4.472;2023-07-13T09:45:28;13.55;;;3.50;;
41709;SDS011;59402;48.396;-4.472;2023-07-13T09:48:03;10.63;;;2.50;;
41709;SDS011;59402;48.396;-4.472;2023-07-13T09:50:29;9.45;;;2.85;;
41709;SDS011;59402;48.396;-4.472;2023-07-13T09:52:55;9.60;;;2.55;;
41709;SDS011;59402;48.396;-4.472;2023-07-13T09:55:39;10.13;;;2.50;;
41709;SDS011;59402;48.396;-4.472;2023-07-13T09:58:09;9.88;;;2.58;;
41709;SDS011;59402;48.396;-4.472;2023-07-13T10:00:35;12.27;;;2.63;;
41709;SDS011;59402;48.396;-4.472;2023-07-13T10:03:02;11.65;;;2.97;;
41709;SDS011;59402;48.396;-4.472;2023-07-13T10:05:32;9.30;;;2.35;;
41709;SDS011;59402;48.396;-4.472;2023-07-13T10:08:01;14.43;;;3.00;;
41709;SDS011;59402;48.396;-4.472;2023-07-13T10:10:27;11.85;;;2.38;;
41709;SDS011;59402;48.396;-4.472;2023-07-13T10:12:52;11.48;;;2.80;;
41709;SDS011;59402;48.396;-4.472;2023-07-13T10:15:22;10.93;;;3.05;;
41709;SDS011;59402;48.396;-4.472;2023-07-13T10:17:47;14.07;;;2.78;;
41709;SDS011;59402;48.396;-4.472;2023-07-13T10:20:13;10.77;;;3.20;;
41709;SDS011;59402;48.396;-4.472;2023-07-13T10:22:44;11.20;;;3.13;;
41709;SDS011;59402;48.396;-4.472;2023-07-13T10:25:15;10.55;;;2.67;;
41709;SDS011;59402;48.396;-4.472;2023-07-13T10:27:41;13.45;;;2.90;;
41709;SDS011;59402;48.396;-4.472;2023-07-13T10:30:20;13.45;;;2.90;;
41709;SDS011;59402;48.396;-4.472;2023-07-13T10:32:48;7.88;;;2.42;;
41709;SDS011;59402;48.396;-4.472;2023-07-13T10:35:14;11.20;;;2.22;;
41709;SDS011;59402;48.396;-4.472;2023-07-13T10:40:13;8.73;;;2.53;;
41709;SDS011;59402;48.396;-4.472;2023-07-13T10:42:39;12.25;;;2.58;;
41709;SDS011;59402;48.396;-4.472;2023-07-13T10:45:13;10.45;;;2.20;;
41709;SDS011;59402;48.396;-4.472;2023-07-13T10:47:39;8.60;;;2.42;;
41709;SDS011;59402;48.396;-4.472;2023-07-13T10:50:05;8.15;;;2.40;;
41709;SDS011;59402;48.396;-4.472;2023-07-13T10:52:45;10.63;;;2.83;;
41709;SDS011;59402;48.396;-4.472;2023-07-13T10:57:55;7.03;;;1.98;;
41709;SDS011;59402;48.396;-4.472;2023-07-13T11:00:24;10.77;;;2.30;;
41709;SDS011;59402;48.396;-4.472;2023-07-13T11:02:57;8.15;;;2.05;;
41709;SDS011;59402;48.396;-4.472;2023-07-13T11:07:52;7.65;;;2.00;;
41709;SDS011;59402;48.396;-4.472;2023-07-13T11:13:03;6.13;;;1.88;;
41709;SDS011;59402;48.396;-4.472;2023-07-13T11:15:33;13.02;;;2.20;;
41709;SDS011;59402;48.396;-4.472;2023-07-13T11:18:12;21.08;;;5.88;;
41709;SDS011;59402;48.396;-4.472;2023-07-13T11:20:44;26.30;;;7.95;;
41709;SDS011;59402;48.396;-4.472;2023-07-13T11:25:35;7.35;;;1.63;;
41709;SDS011;59402;48.396;-4.472;2023-07-13T11:35:51;4.82;;;1.75;;
41709;SDS011;59402;48.396;-4.472;2023-07-13T11:38:18;3.42;;;1.40;;
41709;SDS011;59402;48.396;-4.472;2023-07-13T11:40:45;3.60;;;1.45;;
41709;SDS011;59402;48.396;-4.472;2023-07-13T11:43:12;5.00;;;1.90;;
41709;SDS011;59402;48.396;-4.472;2023-07-13T11:45:38;5.25;;;1.55;;
41709;SDS011;59402;48.396;-4.472;2023-07-13T11:48:04;5.72;;;1.80;;
41709;SDS011;59402;48.396;-4.472;2023-07-13T11:50:29;6.00;;;1.55;;
41709;SDS011;59402;48.396;-4.472;2023-07-13T11:52:57;4.60;;;1.65;;
41709;SDS011;59402;48.396;-4.472;2023-07-13T11:55:23;10.73;;;2.45;;
41709;SDS011;59402;48.396;-4.472;2023-07-13T11:57:59;9.68;;;1.95;;
41709;SDS011;59402;48.396;-4.472;2023-07-13T12:00:26;7.82;;;2.13;;
41709;SDS011;59402;48.396;-4.472;2023-07-13T12:02:53;5.32;;;1.50;;
41709;SDS011;59402;48.396;-4.472;2023-07-13T12:05:20;7.88;;;1.52;;
41709;SDS011;59402;48.396;-4.472;2023-07-13T12:07:49;6.07;;;1.40;;
41709;SDS011;59402;48.396;-4.472;2023-07-13T12:12:57;7.30;;;1.63;;
41709;SDS011;59402;48.396;-4.472;2023-07-13T12:15:23;5.37;;;1.30;;
41709;SDS011;59402;48.396;-4.472;2023-07-13T12:17:49;7.93;;;1.85;;
41709;SDS011;59402;48.396;-4.472;2023-07-13T12:20:23;10.93;;;3.17;;
41709;SDS011;59402;48.396;-4.472;2023-07-13T12:22:49;6.53;;;1.60;;
41709;SDS011;59402;48.396;-4.472;2023-07-13T12:25:15;4.47;;;1.48;;
41709;SDS011;59402;48.396;-4.472;2023-07-13T12:27:40;5.68;;;1.50;;
41709;SDS011;59402;48.396;-4.472;2023-07-13T12:30:28;4.18;;;1.27;;
41709;SDS011;59402;48.396;-4.472;2023-07-13T12:35:47;7.57;;;1.60;;
41709;SDS011;59402;48.396;-4.472;2023-07-13T12:38:15;4.88;;;1.48;;
41709;SDS011;59402;48.396;-4.472;2023-07-13T12:40:40;5.22;;;1.30;;
41709;SDS011;59402;48.396;-4.472;2023-07-13T12:43:11;5.88;;;1.20;;
41709;SDS011;59402;48.396;-4.472;2023-07-13T12:45:36;4.70;;;1.20;;
41709;SDS011;59402;48.396;-4.472;2023-07-13T12:48:03;5.15;;;1.38;;
41709;SDS011;59402;48.396;-4.472;2023-07-13T12:50:37;5.57;;;1.10;;
41709;SDS011;59402;48.396;-4.472;2023-07-13T12:53:03;6.45;;;1.40;;
41709;SDS011;59402;48.396;-4.472;2023-07-13T12:55:39;7.55;;;1.33;;
41709;SDS011;59402;48.396;-4.472;2023-07-13T12:58:06;6.85;;;1.50;;
41709;SDS011;59402;48.396;-4.472;2023-07-13T13:00:32;5.95;;;1.35;;
41709;SDS011;59402;48.396;-4.472;2023-07-13T13:03:02;4.20;;;1.05;;
41709;SDS011;59402;48.396;-4.472;2023-07-13T13:05:29;6.47;;;1.50;;
41709;SDS011;59402;48.396;-4.472;2023-07-13T13:07:55;9.95;;;1.48;;
41709;SDS011;59402;48.396;-4.472;2023-07-13T13:10:20;7.88;;;1.77;;
41709;SDS011;59402;48.396;-4.472;2023-07-13T13:12:46;7.20;;;1.50;;
41709;SDS011;59402;48.396;-4.472;2023-07-13T13:15:11;5.53;;;1.40;;
41709;SDS011;59402;48.396;-4.472;2023-07-13T13:17:37;4.57;;;1.23;;
41709;SDS011;59402;48.396;-4.472;2023-07-13T13:20:16;3.45;;;1.15;;
41709;SDS011;59402;48.396;-4.472;2023-07-13T13:22:41;4.70;;;1.50;;
41709;SDS011;59402;48.396;-4.472;2023-07-13T13:25:09;4.90;;;1.17;;
41709;SDS011;59402;48.396;-4.472;2023-07-13T13:27:35;5.20;;;1.15;;
41709;SDS011;59402;48.396;-4.472;2023-07-13T13:30:00;6.95;;;1.63;;
41709;SDS011;59402;48.396;-4.472;2023-07-13T13:32:25;6.93;;;1.38;;
41709;SDS011;59402;48.396;-4.472;2023-07-13T13:34:51;7.85;;;1.40;;
41709;SDS011;59402;48.396;-4.472;2023-07-13T13:37:23;8.05;;;1.58;;
41709;SDS011;59402;48.396;-4.472;2023-07-13T13:39:48;4.93;;;1.52;;
41709;SDS011;59402;48.396;-4.472;2023-07-13T13:42:14;4.57;;;1.40;;
41709;SDS011;59402;48.396;-4.472;2023-07-13T13:44:40;6.05;;;1.50;;
41709;SDS011;59402;48.396;-4.472;2023-07-13T13:47:20;7.60;;;1.70;;
41709;SDS011;59402;48.396;-4.472;2023-07-13T13:49:46;4.22;;;1.58;;
41709;SDS011;59402;48.396;-4.472;2023-07-13T13:52:12;6.43;;;1.60;;
41709;SDS011;59402;48.396;-4.472;2023-07-13T13:54:38;5.95;;;1.75;;
41709;SDS011;59402;48.396;-4.472;2023-07-13T13:57:03;4.97;;;1.52;;
41709;SDS011;59402;48.396;-4.472;2023-07-13T13:59:29;6.50;;;1.50;;
41709;SDS011;59402;48.396;-4.472;2023-07-13T14:01:57;4.47;;;1.40;;
41709;SDS011;59402;48.396;-4.472;2023-07-13T14:04:25;8.63;;;1.88;;
41709;SDS011;59402;48.396;-4.472;2023-07-13T14:06:50;4.88;;;1.65;;
41709;SDS011;59402;48.396;-4.472;2023-07-13T14:09:16;5.30;;;1.70;;
41709;SDS011;59402;48.396;-4.472;2023-07-13T14:11:43;5.43;;;1.60;;
41709;SDS011;59402;48.396;-4.472;2023-07-13T14:14:14;5.78;;;1.40;;
41709;SDS011;59402;48.396;-4.472;2023-07-13T14:16:40;7.03;;;1.60;;
41709;SDS011;59402;48.396;-4.472;2023-07-13T14:19:08;8.77;;;1.80;;
41709;SDS011;59402;48.396;-4.472;2023-07-13T14:21:35;5.32;;;1.70;;
41709;SDS011;59402;48.396;-4.472;2023-07-13T14:24:00;7.45;;;2.17;;
41709;SDS011;59402;48.396;-4.472;2023-07-13T14:26:26;7.13;;;2.00;;
41709;SDS011;59402;48.396;-4.472;2023-07-13T14:28:56;6.75;;;1.70;;
41709;SDS011;59402;48.396;-4.472;2023-07-13T14:31:23;5.22;;;1.85;;
41709;SDS011;59402;48.396;-4.472;2023-07-13T14:33:48;8.68;;;1.90;;
41709;SDS011;59402;48.396;-4.472;2023-07-13T14:36:28;8.45;;;1.95;;
41709;SDS011;59402;48.396;-4.472;2023-07-13T14:38:54;8.13;;;2.00;;
41709;SDS011;59402;48.396;-4.472;2023-07-13T14:41:20;7.32;;;1.98;;
41709;SDS011;59402;48.396;-4.472;2023-07-13T14:43:45;6.80;;;1.88;;
41709;SDS011;59402;48.396;-4.472;2023-07-13T14:46:16;3.88;;;1.60;;
41709;SDS011;59402;48.396;-4.472;2023-07-13T14:48:43;9.70;;;2.20;;
41709;SDS011;59402;48.396;-4.472;2023-07-13T14:51:09;7.18;;;1.90;;
41709;SDS011;59402;48.396;-4.472;2023-07-13T14:53:35;11.10;;;2.25;;
41709;SDS011;59402;48.396;-4.472;2023-07-13T14:56:08;7.72;;;2.10;;
41709;SDS011;59402;48.396;-4.472;2023-07-13T14:58:34;7.03;;;1.70;;
41709;SDS011;59402;48.396;-4.472;2023-07-13T15:00:59;7.28;;;1.92;;
41709;SDS011;59402;48.396;-4.472;2023-07-13T15:03:24;5.88;;;1.58;;
41709;SDS011;59402;48.396;-4.472;2023-07-13T15:05:50;5.65;;;1.58;;